createdAt,value
2017-05-04T00:07:37.832Z,20.10
2017-05-04T00:08:09.348Z,20.10
2017-05-04T00:09:12.588Z,20.10
2017-05-04T00:10:12.659Z,20.10
2017-05-04T00:11:12.304Z,20.10
2017-05-04T00:12:11.504Z,20.10
2017-05-04T00:13:11.370Z,20.10
2017-05-04T00:14:11.605Z,20.10
2017-05-04T00:15:12.503Z,20.10
2017-05-04T00:16:11.657Z,20.10
2017-05-04T00:17:14.726Z,20.10
2017-05-04T00:18:12.661Z,20.10
2017-05-04T00:19:11.734Z,20.10
2017-05-04T00:20:12.596Z,20.10
2017-05-04T00:21:11.563Z,20.10
2017-05-04T00:22:11.752Z,20.10
2017-05-04T00:23:12.505Z,20.10
2017-05-04T00:24:11.706Z,20.10
2017-05-04T00:25:13.126Z,20.10
2017-05-04T00:26:11.833Z,20.10
2017-05-04T00:27:12.960Z,20.10
2017-05-04T00:28:11.403Z,20.10
2017-05-04T00:29:12.496Z,20.10
2017-05-04T00:30:12.820Z,20.10
2017-05-04T00:31:12.845Z,20.10
2017-05-04T00:32:11.869Z,20.10
2017-05-04T00:33:10.091Z,20.10
2017-05-04T00:34:11.755Z,20.10
2017-05-04T00:35:12.269Z,20.10
2017-05-04T00:36:15.168Z,20.10
2017-05-04T00:37:12.130Z,20.10
2017-05-04T00:38:11.334Z,20.10
2017-05-04T00:39:12.087Z,20.10
2017-05-04T00:40:12.878Z,20.10
2017-05-04T00:41:09.653Z,20.10
2017-05-04T00:42:11.344Z,20.10
2017-05-04T00:43:13.236Z,20.10
2017-05-04T00:44:12.249Z,20.10
2017-05-04T00:45:12.306Z,20.10
2017-05-04T00:46:09.207Z,20.10
2017-05-04T00:47:11.955Z,20.10
2017-05-04T00:48:11.778Z,20.10
2017-05-04T00:49:12.018Z,20.10
2017-05-04T00:50:11.798Z,20.10
2017-05-04T00:51:13.388Z,20.10
2017-05-04T00:52:13.370Z,20.10
2017-05-04T00:53:11.473Z,20.10
2017-05-04T00:54:12.232Z,20.10
2017-05-04T00:55:11.371Z,20.10
2017-05-04T00:56:08.680Z,20.10
2017-05-04T00:57:09.136Z,20.10
2017-05-04T00:58:11.253Z,20.10
2017-05-04T00:59:12.261Z,20.10
2017-05-04T01:00:12.912Z,20.10
2017-05-04T01:01:12.179Z,20.10
2017-05-04T01:02:11.796Z,20.10
2017-05-04T01:03:12.757Z,20.10
2017-05-04T01:04:12.279Z,20.10
2017-05-04T01:05:11.450Z,20.10
2017-05-04T01:06:11.868Z,20.10
2017-05-04T01:07:12.102Z,20.10
2017-05-04T01:08:11.076Z,20.10
2017-05-04T01:09:13.937Z,20.10
2017-05-04T01:10:12.645Z,20.10
2017-05-04T01:11:11.851Z,20.10
2017-05-04T01:12:12.014Z,20.10
2017-05-04T01:13:11.138Z,20.10
2017-05-04T01:14:12.216Z,20.10
2017-05-04T01:15:09.891Z,20.10
2017-05-04T01:16:11.743Z,20.10
2017-05-04T01:17:12.026Z,20.10
2017-05-04T01:18:11.797Z,20.10
2017-05-04T01:19:13.719Z,20.10
2017-05-04T01:20:12.576Z,20.10
2017-05-04T01:21:10.407Z,20.10
2017-05-04T01:22:12.307Z,20.10
2017-05-04T01:23:11.357Z,20.10
2017-05-04T01:24:09.964Z,20.10
2017-05-04T01:25:12.154Z,20.10
2017-05-04T01:26:11.648Z,20.10
2017-05-04T01:27:13.368Z,20.10
2017-05-04T01:28:12.737Z,20.10
2017-05-04T01:29:12.593Z,20.10
2017-05-04T01:30:13.007Z,20.10
2017-05-04T01:31:15.887Z,20.10
2017-05-04T01:32:09.797Z,20.10
2017-05-04T01:33:12.889Z,20.10
2017-05-04T01:34:12.056Z,20.10
2017-05-04T01:35:11.490Z,20.10
2017-05-04T01:36:11.615Z,20.10
2017-05-04T01:37:11.708Z,20.10
2017-05-04T01:38:12.599Z,20.10
2017-05-04T01:39:12.474Z,20.10
2017-05-04T01:40:11.630Z,20.10
2017-05-04T01:41:11.739Z,20.10
2017-05-04T01:42:14.573Z,20.10
2017-05-04T01:43:11.638Z,20.10
2017-05-04T01:44:12.391Z,20.10
2017-05-04T01:45:13.236Z,20.10
2017-05-04T01:46:14.270Z,20.10
2017-05-04T01:47:11.969Z,20.10
2017-05-04T01:48:11.989Z,20.10
2017-05-04T01:49:11.766Z,20.10
2017-05-04T01:50:13.529Z,20.10
2017-05-04T01:51:11.596Z,20.10
2017-05-04T01:52:11.799Z,20.10
2017-05-04T01:53:12.655Z,20.10
2017-05-04T01:54:12.076Z,20.10
2017-05-04T01:55:11.532Z,20.10
2017-05-04T01:56:12.673Z,20.10
2017-05-04T01:57:14.711Z,20.10
2017-05-04T01:58:12.435Z,20.10
2017-05-04T01:59:11.948Z,20.10
2017-05-04T02:00:11.725Z,20.10
2017-05-04T02:01:12.628Z,20.10
2017-05-04T02:02:11.626Z,20.10
2017-05-04T02:03:11.918Z,20.10
2017-05-04T02:04:12.244Z,20.10
2017-05-04T02:05:12.850Z,20.10
2017-05-04T02:06:11.871Z,20.10
2017-05-04T02:07:10.330Z,20.10
2017-05-04T02:08:12.938Z,20.10
2017-05-04T02:09:09.434Z,20.10
2017-05-04T02:10:11.244Z,20.10
2017-05-04T02:11:12.314Z,20.10
2017-05-04T02:12:11.951Z,20.10
2017-05-04T02:13:12.259Z,20.10
2017-05-04T02:14:11.562Z,20.10
2017-05-04T02:15:11.717Z,20.10
2017-05-04T02:16:12.246Z,20.10
2017-05-04T02:17:11.870Z,20.10
2017-05-04T02:18:12.483Z,20.10
2017-05-04T02:19:08.932Z,20.10
2017-05-04T02:20:11.805Z,20.10
2017-05-04T02:21:09.754Z,20.10
2017-05-04T02:22:09.867Z,20.10
2017-05-04T02:23:09.215Z,20.10
2017-05-04T02:24:12.708Z,20.10
2017-05-04T02:25:11.826Z,20.10
2017-05-04T02:26:11.953Z,20.10
2017-05-04T02:27:11.463Z,20.10
2017-05-04T02:28:10.209Z,20.10
2017-05-04T02:29:11.738Z,20.10
2017-05-04T02:30:13.635Z,20.10
2017-05-04T02:31:13.406Z,20.10
2017-05-04T02:32:09.870Z,20.10
2017-05-04T02:33:12.937Z,20.10
2017-05-04T02:34:13.640Z,20.10
2017-05-04T02:35:12.497Z,20.10
2017-05-04T02:36:11.466Z,20.10
2017-05-04T02:37:11.693Z,20.10
2017-05-04T02:38:13.428Z,20.10
2017-05-04T02:39:12.245Z,20.10
2017-05-04T02:40:11.480Z,20.10
2017-05-04T02:41:11.869Z,20.10
2017-05-04T02:42:11.055Z,20.10
2017-05-04T02:43:12.847Z,20.10
2017-05-04T02:44:11.854Z,20.10
2017-05-04T02:45:12.174Z,20.10
2017-05-04T02:46:11.278Z,20.10
2017-05-04T02:47:12.019Z,20.10
2017-05-04T02:48:12.045Z,20.10
2017-05-04T02:49:11.167Z,20.10
2017-05-04T02:50:11.959Z,20.10
2017-05-04T02:51:08.562Z,20.10
2017-05-04T02:52:14.805Z,20.10
2017-05-04T02:53:10.345Z,20.10
2017-05-04T02:54:12.653Z,20.10
2017-05-04T02:55:10.611Z,20.10
2017-05-04T02:56:12.791Z,20.10
2017-05-04T02:57:12.630Z,20.10
2017-05-04T02:58:11.684Z,20.10
2017-05-04T02:59:12.536Z,20.10
2017-05-04T03:00:11.698Z,20.10
2017-05-04T03:01:10.221Z,20.10
2017-05-04T03:02:12.270Z,20.10
2017-05-04T03:03:11.874Z,20.10
2017-05-04T03:04:12.695Z,20.10
2017-05-04T03:05:11.913Z,20.10
2017-05-04T03:06:10.335Z,20.10
2017-05-04T03:07:11.981Z,20.10
2017-05-04T03:08:11.513Z,20.10
2017-05-04T03:09:10.280Z,20.10
2017-05-04T03:10:11.615Z,20.10
2017-05-04T03:11:12.319Z,20.10
2017-05-04T03:12:12.227Z,20.10
2017-05-04T03:13:11.517Z,20.10
2017-05-04T03:14:11.281Z,20.10
2017-05-04T03:15:12.719Z,20.10
2017-05-04T03:16:12.676Z,20.10
2017-05-04T03:17:13.025Z,20.10
2017-05-04T03:18:10.972Z,20.10
2017-05-04T03:19:11.163Z,20.10
2017-05-04T03:20:11.999Z,20.10
2017-05-04T03:21:11.714Z,20.10
2017-05-04T03:22:09.944Z,20.10
2017-05-04T03:23:12.295Z,20.10
2017-05-04T03:24:11.772Z,20.10
2017-05-04T03:25:12.532Z,20.10
2017-05-04T03:26:11.989Z,20.10
2017-05-04T03:27:11.274Z,20.10
2017-05-04T03:28:12.170Z,20.10
2017-05-04T03:29:09.792Z,20.10
2017-05-04T03:30:12.076Z,20.10
2017-05-04T03:31:09.661Z,20.10
2017-05-04T03:32:12.579Z,20.10
2017-05-04T03:33:11.685Z,20.00
2017-05-04T03:34:13.909Z,20.10
2017-05-04T03:35:12.053Z,20.10
2017-05-04T03:36:13.201Z,20.10
2017-05-04T03:37:13.112Z,20.10
2017-05-04T03:38:11.368Z,20.00
2017-05-04T03:39:12.349Z,20.00
2017-05-04T03:40:12.010Z,20.10
2017-05-04T03:41:11.885Z,20.00
2017-05-04T03:42:12.745Z,20.00
2017-05-04T03:43:11.894Z,20.00
2017-05-04T03:44:13.588Z,20.10
2017-05-04T03:45:12.612Z,20.00
2017-05-04T03:46:12.488Z,20.00
2017-05-04T03:47:11.648Z,20.00
2017-05-04T03:48:12.043Z,20.00
2017-05-04T03:49:10.923Z,20.00
2017-05-04T03:50:12.767Z,20.00
2017-05-04T03:51:10.343Z,20.10
2017-05-04T03:52:12.686Z,20.10
2017-05-04T03:53:09.971Z,20.10
2017-05-04T03:54:11.921Z,20.00
2017-05-04T03:55:12.057Z,20.00
2017-05-04T03:56:11.138Z,20.00
2017-05-04T03:57:11.358Z,20.00
2017-05-04T03:58:12.427Z,20.10
2017-05-04T03:59:14.155Z,20.00
2017-05-04T04:00:11.398Z,20.00
2017-05-04T04:01:12.285Z,20.00
2017-05-04T04:02:09.083Z,20.00
2017-05-04T04:03:12.532Z,20.00
2017-05-04T04:04:12.101Z,20.00
2017-05-04T04:05:11.235Z,20.00
2017-05-04T04:06:11.522Z,20.00
2017-05-04T04:07:12.589Z,20.00
2017-05-04T04:08:12.828Z,20.00
2017-05-04T04:09:12.029Z,20.00
2017-05-04T04:10:11.964Z,20.00
2017-05-04T04:11:11.740Z,20.00
2017-05-04T04:12:12.382Z,20.00
2017-05-04T04:13:13.197Z,20.00
2017-05-04T04:14:09.921Z,20.00
2017-05-04T04:15:12.018Z,20.00
2017-05-04T04:16:12.066Z,20.00
2017-05-04T04:17:12.271Z,20.00
2017-05-04T04:18:11.450Z,20.00
2017-05-04T04:19:11.546Z,20.00
2017-05-04T04:20:13.404Z,20.00
2017-05-04T04:21:13.979Z,20.00
2017-05-04T04:22:12.828Z,20.00
2017-05-04T04:23:13.677Z,20.00
2017-05-04T04:24:13.544Z,20.00
2017-05-04T04:25:14.087Z,20.00
2017-05-04T04:26:12.262Z,20.00
2017-05-04T04:27:11.422Z,20.00
2017-05-04T04:28:12.508Z,20.00
2017-05-04T04:29:12.054Z,20.00
2017-05-04T04:30:11.303Z,20.00
2017-05-04T04:31:09.029Z,20.00
2017-05-04T04:32:12.328Z,20.00
2017-05-04T04:33:12.125Z,20.00
2017-05-04T04:34:11.909Z,20.00
2017-05-04T04:35:12.834Z,20.00
2017-05-04T04:36:11.810Z,20.00
2017-05-04T04:37:14.023Z,20.00
2017-05-04T04:38:12.943Z,20.00
2017-05-04T04:39:11.573Z,20.00
2017-05-04T04:40:11.705Z,20.00
2017-05-04T04:41:12.738Z,20.00
2017-05-04T04:42:13.029Z,20.00
2017-05-04T04:43:11.887Z,20.00
2017-05-04T04:44:12.622Z,20.00
2017-05-04T04:45:12.579Z,20.00
2017-05-04T04:46:12.192Z,20.00
2017-05-04T04:47:11.912Z,20.00
2017-05-04T04:48:12.178Z,20.00
2017-05-04T04:49:13.400Z,20.00
2017-05-04T04:50:10.191Z,20.00
2017-05-04T04:51:12.304Z,20.00
2017-05-04T04:52:13.043Z,20.00
2017-05-04T04:53:11.163Z,20.00
2017-05-04T04:54:11.892Z,20.00
2017-05-04T04:55:11.834Z,20.00
2017-05-04T04:56:13.828Z,20.00
2017-05-04T04:57:11.961Z,20.00
2017-05-04T04:58:11.157Z,20.00
2017-05-04T04:59:12.302Z,20.00
2017-05-04T05:00:11.354Z,20.00
2017-05-04T05:01:12.285Z,20.00
2017-05-04T05:02:12.363Z,20.00
2017-05-04T05:03:12.034Z,20.00
2017-05-04T05:04:10.873Z,20.00
2017-05-04T05:05:11.079Z,20.00
2017-05-04T05:06:11.597Z,20.00
2017-05-04T05:07:11.741Z,20.00
2017-05-04T05:08:12.670Z,20.00
2017-05-04T05:09:11.880Z,20.00
2017-05-04T05:10:12.152Z,20.00
2017-05-04T05:11:11.974Z,20.00
2017-05-04T05:12:11.166Z,20.00
2017-05-04T05:13:09.903Z,20.00
2017-05-04T05:14:12.243Z,20.00
2017-05-04T05:15:11.840Z,20.00
2017-05-04T05:16:12.490Z,20.00
2017-05-04T05:17:11.880Z,20.00
2017-05-04T05:18:12.834Z,20.00
2017-05-04T05:19:12.057Z,20.00
2017-05-04T05:20:11.864Z,20.00
2017-05-04T05:21:12.767Z,20.00
2017-05-04T05:22:12.593Z,20.00
2017-05-04T05:23:12.244Z,20.00
2017-05-04T05:24:11.950Z,20.00
2017-05-04T05:25:13.334Z,20.00
2017-05-04T05:26:12.029Z,20.00
2017-05-04T05:27:14.816Z,20.00
2017-05-04T05:28:13.441Z,19.90
2017-05-04T05:29:12.266Z,19.90
2017-05-04T05:30:11.538Z,20.00
2017-05-04T05:31:12.478Z,20.00
2017-05-04T05:32:11.515Z,20.00
2017-05-04T05:33:13.307Z,20.00
2017-05-04T05:34:11.960Z,20.00
2017-05-04T05:35:11.276Z,19.90
2017-05-04T05:36:12.027Z,20.00
2017-05-04T05:37:11.098Z,20.00
2017-05-04T05:38:11.888Z,20.00
2017-05-04T05:39:12.608Z,20.00
2017-05-04T05:40:13.117Z,19.90
2017-05-04T05:41:11.287Z,19.90
2017-05-04T05:42:13.282Z,20.00
2017-05-04T05:43:12.017Z,19.90
2017-05-04T05:44:12.961Z,20.00
2017-05-04T05:45:12.269Z,19.90
2017-05-04T05:46:12.339Z,19.90
2017-05-04T05:47:08.524Z,19.90
2017-05-04T05:48:11.835Z,19.90
2017-05-04T05:49:13.786Z,19.90
2017-05-04T05:50:12.647Z,19.90
2017-05-04T05:51:12.210Z,20.00
2017-05-04T05:52:13.312Z,19.90
2017-05-04T05:53:09.962Z,19.90
2017-05-04T05:54:11.614Z,19.90
2017-05-04T05:55:12.270Z,20.00
2017-05-04T05:56:12.198Z,19.90
2017-05-04T05:57:11.264Z,19.90
2017-05-04T05:58:11.992Z,19.90
2017-05-04T05:59:11.744Z,19.90
2017-05-04T06:00:10.319Z,19.90
2017-05-04T06:01:10.242Z,20.00
2017-05-04T06:02:12.037Z,19.90
2017-05-04T06:03:11.179Z,20.00
2017-05-04T06:04:11.473Z,20.00
2017-05-04T06:05:09.930Z,20.00
2017-05-04T06:06:12.257Z,20.00
2017-05-04T06:07:11.252Z,20.00
2017-05-04T06:08:11.943Z,20.00
2017-05-04T06:09:11.300Z,20.00
2017-05-04T06:10:13.200Z,20.00
2017-05-04T06:11:09.571Z,20.00
2017-05-04T06:12:11.850Z,20.00
2017-05-04T06:13:12.056Z,20.00
2017-05-04T06:14:11.808Z,20.00
2017-05-04T06:15:12.732Z,20.00
2017-05-04T06:16:11.860Z,20.00
2017-05-04T06:17:12.228Z,20.00
2017-05-04T06:18:12.155Z,20.00
2017-05-04T06:19:11.087Z,20.10
2017-05-04T06:20:11.634Z,20.10
2017-05-04T06:21:11.790Z,20.10
2017-05-04T06:22:12.003Z,20.10
2017-05-04T06:23:11.973Z,20.10
2017-05-04T06:24:11.380Z,20.00
2017-05-04T06:25:11.531Z,20.00
2017-05-04T06:26:09.012Z,19.90
2017-05-04T06:27:11.901Z,19.80
2017-05-04T06:28:12.291Z,19.70
2017-05-04T06:29:11.334Z,19.70
2017-05-04T06:30:12.487Z,19.70
2017-05-04T06:31:11.404Z,19.70
2017-05-04T06:32:12.057Z,19.70
2017-05-04T06:33:11.221Z,19.70
2017-05-04T06:34:11.465Z,19.70
2017-05-04T06:35:11.546Z,19.80
2017-05-04T06:36:14.129Z,19.80
2017-05-04T06:37:11.770Z,19.80
2017-05-04T06:38:12.578Z,19.80
2017-05-04T06:39:11.787Z,19.90
2017-05-04T06:40:11.867Z,19.90
2017-05-04T06:41:12.981Z,19.90
2017-05-04T06:42:11.821Z,19.90
2017-05-04T06:43:13.502Z,19.90
2017-05-04T06:44:12.342Z,19.90
2017-05-04T06:45:12.836Z,19.90
2017-05-04T06:46:11.945Z,19.90
2017-05-04T06:47:12.689Z,19.90
2017-05-04T06:48:11.616Z,20.00
2017-05-04T06:49:13.340Z,19.90
2017-05-04T06:50:08.712Z,20.00
2017-05-04T06:51:11.381Z,20.00
2017-05-04T06:52:11.396Z,20.00
2017-05-04T06:53:17.025Z,20.00
2017-05-04T06:54:12.932Z,20.00
2017-05-04T06:55:10.280Z,20.00
2017-05-04T06:56:14.523Z,20.00
2017-05-04T06:57:11.681Z,20.00
2017-05-04T06:58:13.313Z,20.00
2017-05-04T06:59:11.353Z,20.00
2017-05-04T07:00:12.270Z,20.00
2017-05-04T07:01:11.913Z,20.00
2017-05-04T07:02:12.837Z,20.00
2017-05-04T07:03:11.981Z,20.00
2017-05-04T07:04:11.225Z,20.00
2017-05-04T07:05:13.111Z,20.00
2017-05-04T07:06:12.915Z,20.00
2017-05-04T07:07:12.660Z,20.00
2017-05-04T07:08:11.611Z,20.00
2017-05-04T07:09:13.514Z,20.00
2017-05-04T07:10:11.628Z,20.00
2017-05-04T07:11:12.772Z,20.00
2017-05-04T07:12:12.376Z,20.00
2017-05-04T07:13:09.943Z,20.00
2017-05-04T07:14:13.109Z,20.00
2017-05-04T07:15:11.432Z,20.00
2017-05-04T07:16:11.553Z,20.00
2017-05-04T07:17:10.682Z,20.00
2017-05-04T07:18:11.464Z,20.00
2017-05-04T07:19:11.648Z,20.00
2017-05-04T07:20:12.259Z,20.00
2017-05-04T07:21:11.856Z,20.10
2017-05-04T07:22:12.610Z,20.10
2017-05-04T07:23:11.738Z,20.00
2017-05-04T07:24:12.526Z,20.10
2017-05-04T07:25:10.008Z,20.10
2017-05-04T07:26:12.260Z,20.10
2017-05-04T07:27:11.735Z,20.10
2017-05-04T07:28:11.977Z,20.00
2017-05-04T07:29:09.442Z,20.00
2017-05-04T07:30:12.783Z,20.10
2017-05-04T07:31:12.341Z,20.10
2017-05-04T07:32:11.754Z,20.10
2017-05-04T07:33:10.261Z,20.10
2017-05-04T07:34:11.986Z,20.10
2017-05-04T07:35:11.167Z,20.10
2017-05-04T07:36:09.522Z,20.10
2017-05-04T07:37:12.050Z,20.10
2017-05-04T07:38:11.096Z,20.10
2017-05-04T07:39:11.814Z,20.20
2017-05-04T07:40:12.699Z,20.20
2017-05-04T07:41:11.983Z,20.10
2017-05-04T07:42:11.520Z,20.20
2017-05-04T07:43:10.109Z,20.20
2017-05-04T07:44:11.967Z,20.10
2017-05-04T07:45:12.928Z,20.20
2017-05-04T07:46:12.673Z,20.20
2017-05-04T07:47:11.914Z,20.20
2017-05-04T07:48:14.293Z,20.20
2017-05-04T07:49:12.352Z,20.20
2017-05-04T07:50:12.131Z,20.20
2017-05-04T07:51:11.693Z,20.10
2017-05-04T07:52:12.536Z,20.00
2017-05-04T07:53:12.788Z,20.00
2017-05-04T07:54:12.303Z,19.90
2017-05-04T07:55:11.448Z,19.80
2017-05-04T07:56:11.546Z,19.70
2017-05-04T07:57:12.205Z,19.70
2017-05-04T07:58:11.435Z,19.60
2017-05-04T07:59:11.567Z,19.60
2017-05-04T08:00:12.602Z,19.60
2017-05-04T08:01:12.259Z,19.60
2017-05-04T08:02:11.371Z,19.70
2017-05-04T08:03:11.659Z,19.70
2017-05-04T08:04:10.297Z,19.80
2017-05-04T08:05:11.761Z,19.80
2017-05-04T08:06:13.433Z,19.90
2017-05-04T08:07:12.535Z,19.90
2017-05-04T08:08:12.035Z,20.00
2017-05-04T08:09:11.779Z,20.10
2017-05-04T08:10:12.794Z,20.10
2017-05-04T08:11:13.534Z,20.20
2017-05-04T08:12:11.749Z,20.20
2017-05-04T08:13:11.785Z,20.20
2017-05-04T08:14:12.675Z,20.30
2017-05-04T08:15:11.879Z,20.30
2017-05-04T08:16:12.646Z,20.40
2017-05-04T08:17:12.876Z,20.40
2017-05-04T08:18:12.647Z,20.50
2017-05-04T08:19:11.837Z,20.50
2017-05-04T08:20:12.690Z,20.50
2017-05-04T08:21:11.775Z,20.60
2017-05-04T08:22:12.617Z,20.60
2017-05-04T08:23:12.338Z,20.70
2017-05-04T08:24:12.222Z,20.60
2017-05-04T08:25:11.851Z,20.70
2017-05-04T08:26:12.096Z,20.70
2017-05-04T08:27:11.055Z,20.70
2017-05-04T08:28:12.851Z,20.70
2017-05-04T08:29:11.847Z,20.70
2017-05-04T08:30:12.058Z,20.80
2017-05-04T08:31:11.209Z,20.70
2017-05-04T08:32:12.048Z,20.80
2017-05-04T08:33:11.869Z,20.80
2017-05-04T08:34:13.068Z,20.80
2017-05-04T08:35:11.583Z,20.90
2017-05-04T08:36:11.655Z,20.90
2017-05-04T08:37:11.521Z,20.90
2017-05-04T08:38:11.564Z,21.00
2017-05-04T08:39:11.997Z,21.00
2017-05-04T08:40:11.741Z,21.00
2017-05-04T08:41:14.610Z,21.00
2017-05-04T08:42:12.473Z,21.00
2017-05-04T08:43:11.986Z,21.00
2017-05-04T08:44:11.310Z,21.00
2017-05-04T08:45:11.688Z,21.10
2017-05-04T08:46:12.550Z,21.10
2017-05-04T08:47:12.266Z,21.10
2017-05-04T08:48:11.419Z,21.10
2017-05-04T08:49:13.067Z,21.10
2017-05-04T08:50:11.227Z,21.10
2017-05-04T08:51:12.632Z,21.10
2017-05-04T08:52:12.798Z,21.10
2017-05-04T08:53:09.843Z,21.10
2017-05-04T08:54:12.038Z,21.10
2017-05-04T08:55:11.910Z,21.10
2017-05-04T08:56:12.796Z,21.10
2017-05-04T08:57:13.578Z,21.10
2017-05-04T08:58:13.246Z,21.10
2017-05-04T08:59:11.479Z,21.10
2017-05-04T09:00:11.643Z,21.10
2017-05-04T09:01:12.622Z,21.10
2017-05-04T09:02:11.920Z,21.10
2017-05-04T09:03:12.250Z,21.20
2017-05-04T09:04:11.496Z,21.20
2017-05-04T09:05:11.671Z,21.10
2017-05-04T09:06:12.518Z,21.10
2017-05-04T09:07:12.291Z,21.10
2017-05-04T09:08:11.958Z,21.10
2017-05-04T09:09:19.633Z,21.00
2017-05-04T09:10:12.369Z,21.10
2017-05-04T09:11:11.633Z,21.10
2017-05-04T09:12:12.589Z,21.00
2017-05-04T09:13:10.319Z,21.10
2017-05-04T09:14:11.941Z,21.10
2017-05-04T09:15:12.161Z,21.00
2017-05-04T09:16:11.939Z,21.10
2017-05-04T09:17:12.901Z,21.10
2017-05-04T09:18:12.061Z,21.00
2017-05-04T09:19:09.776Z,21.00
2017-05-04T09:20:09.932Z,21.00
2017-05-04T09:21:12.034Z,21.00
2017-05-04T09:22:14.082Z,21.00
2017-05-04T09:23:11.426Z,21.00
2017-05-04T09:24:12.187Z,21.00
2017-05-04T09:25:12.185Z,21.00
2017-05-04T09:26:11.383Z,21.00
2017-05-04T09:27:11.789Z,21.00
2017-05-04T09:28:12.667Z,21.00
2017-05-04T09:29:11.682Z,21.00
2017-05-04T09:30:12.543Z,21.00
2017-05-04T09:31:09.856Z,21.00
2017-05-04T09:32:11.576Z,21.00
2017-05-04T09:33:11.965Z,21.00
2017-05-04T09:34:11.800Z,21.00
2017-05-04T09:35:11.912Z,21.00
2017-05-04T09:36:12.773Z,21.00
2017-05-04T09:37:09.076Z,21.00
2017-05-04T09:38:13.330Z,21.10
2017-05-04T09:39:09.949Z,21.10
2017-05-04T09:40:11.849Z,21.10
2017-05-04T09:41:13.787Z,21.10
2017-05-04T09:42:11.849Z,21.20
2017-05-04T09:43:12.886Z,21.20
2017-05-04T09:44:12.579Z,21.20
2017-05-04T09:45:11.847Z,21.10
2017-05-04T09:46:12.018Z,21.10
2017-05-04T09:47:11.168Z,21.10
2017-05-04T09:48:11.368Z,21.10
2017-05-04T09:49:11.682Z,21.00
2017-05-04T09:50:10.004Z,21.10
2017-05-04T09:51:13.187Z,21.00
2017-05-04T09:52:13.499Z,21.00
2017-05-04T09:53:11.661Z,21.00
2017-05-04T09:54:13.313Z,21.00
2017-05-04T09:55:12.181Z,21.00
2017-05-04T09:56:11.909Z,20.90
2017-05-04T09:57:13.230Z,21.00
2017-05-04T09:58:12.239Z,21.10
2017-05-04T09:59:12.477Z,21.10
2017-05-04T10:00:11.649Z,21.00
2017-05-04T10:01:09.391Z,21.00
2017-05-04T10:02:11.782Z,21.00
2017-05-04T10:03:11.897Z,21.00
2017-05-04T10:04:12.240Z,21.00
2017-05-04T10:05:12.018Z,20.90
2017-05-04T10:06:11.694Z,20.90
2017-05-04T10:07:12.274Z,20.90
2017-05-04T10:08:11.987Z,20.90
2017-05-04T10:09:11.604Z,20.80
2017-05-04T10:10:12.502Z,20.80
2017-05-04T10:11:11.899Z,20.80
2017-05-04T10:12:09.368Z,20.80
2017-05-04T10:13:12.203Z,20.70
2017-05-04T10:14:11.423Z,20.70
2017-05-04T10:15:13.243Z,20.70
2017-05-04T10:16:12.293Z,20.70
2017-05-04T10:17:11.990Z,20.70
2017-05-04T10:18:11.690Z,20.60
2017-05-04T10:19:13.420Z,20.60
2017-05-04T10:20:11.568Z,20.60
2017-05-04T10:21:12.675Z,20.60
2017-05-04T10:22:11.767Z,20.60
2017-05-04T10:23:12.499Z,20.50
2017-05-04T10:24:12.296Z,20.50
2017-05-04T10:25:12.035Z,20.50
2017-05-04T10:26:12.982Z,20.50
2017-05-04T10:27:12.763Z,20.50
2017-05-04T10:28:12.555Z,20.50
2017-05-04T10:29:12.033Z,20.50
2017-05-04T10:30:11.995Z,20.40
2017-05-04T10:31:11.082Z,20.40
2017-05-04T10:32:11.286Z,20.40
2017-05-04T10:33:11.956Z,20.40
2017-05-04T10:34:12.688Z,20.40
2017-05-04T10:35:13.242Z,20.40
2017-05-04T10:36:12.899Z,20.30
2017-05-04T10:37:12.742Z,20.30
2017-05-04T10:38:12.255Z,20.30
2017-05-04T10:39:12.043Z,20.30
2017-05-04T10:40:11.782Z,20.30
2017-05-04T10:41:11.883Z,20.30
2017-05-04T10:42:12.151Z,20.30
2017-05-04T10:43:12.838Z,20.30
2017-05-04T10:44:13.033Z,20.30
2017-05-04T10:45:11.233Z,20.30
2017-05-04T10:46:12.307Z,20.30
2017-05-04T10:47:11.440Z,20.30
2017-05-04T10:48:12.247Z,20.30
2017-05-04T10:49:11.756Z,20.30
2017-05-04T10:50:12.605Z,20.30
2017-05-04T10:51:13.292Z,20.20
2017-05-04T10:52:12.447Z,20.30
2017-05-04T10:53:11.904Z,20.20
2017-05-04T10:54:11.103Z,20.20
2017-05-04T10:55:11.702Z,20.20
2017-05-04T10:56:11.898Z,20.20
2017-05-04T10:57:13.334Z,20.20
2017-05-04T10:58:11.930Z,20.20
2017-05-04T10:59:11.988Z,20.20
2017-05-04T11:00:12.136Z,20.20
2017-05-04T11:01:11.727Z,20.20
2017-05-04T11:02:12.035Z,20.20
2017-05-04T11:03:12.059Z,20.20
2017-05-04T11:04:11.936Z,20.20
2017-05-04T11:05:12.671Z,20.20
2017-05-04T11:06:13.336Z,20.20
2017-05-04T11:07:11.593Z,20.20
2017-05-04T11:08:12.820Z,20.20
2017-05-04T11:09:11.951Z,20.20
2017-05-04T11:10:11.305Z,20.10
2017-05-04T11:11:12.020Z,20.10
2017-05-04T11:12:12.792Z,20.10
2017-05-04T11:13:10.308Z,20.10
2017-05-04T11:14:13.836Z,20.20
2017-05-04T11:15:12.563Z,20.10
2017-05-04T11:16:12.248Z,20.10
2017-05-04T11:17:11.604Z,20.10
2017-05-04T11:18:11.802Z,20.10
2017-05-04T11:19:12.644Z,20.10
2017-05-04T11:20:12.565Z,20.10
2017-05-04T11:21:11.664Z,20.10
2017-05-04T11:22:12.413Z,20.10
2017-05-04T11:23:12.652Z,20.10
2017-05-04T11:24:12.261Z,20.10
2017-05-04T11:25:08.578Z,20.10
2017-05-04T11:26:12.882Z,20.10
2017-05-04T11:27:12.755Z,20.10
2017-05-04T11:28:11.861Z,20.10
2017-05-04T11:29:14.622Z,20.10
2017-05-04T11:30:10.317Z,20.10
2017-05-04T11:31:12.753Z,20.10
2017-05-04T11:32:11.983Z,20.10
2017-05-04T11:33:11.739Z,20.10
2017-05-04T11:34:12.324Z,20.10
2017-05-04T11:35:11.995Z,20.10
2017-05-04T11:36:11.987Z,20.10
2017-05-04T11:37:11.049Z,20.10
2017-05-04T11:38:09.393Z,20.10
2017-05-04T11:39:12.672Z,20.10
2017-05-04T11:40:12.552Z,20.10
2017-05-04T11:41:11.699Z,20.10
2017-05-04T11:42:12.408Z,20.10
2017-05-04T11:43:12.209Z,20.10
2017-05-04T11:44:09.547Z,20.10
2017-05-04T11:45:12.016Z,20.10
2017-05-04T11:46:10.982Z,20.10
2017-05-04T11:47:10.996Z,20.10
2017-05-04T11:48:11.154Z,20.10
2017-05-04T11:49:12.082Z,20.10
2017-05-04T11:50:11.320Z,20.00
2017-05-04T11:51:12.086Z,20.10
2017-05-04T11:52:11.084Z,20.10
2017-05-04T11:53:11.268Z,20.10
2017-05-04T11:54:11.428Z,20.10
2017-05-04T11:55:12.247Z,20.10
2017-05-04T11:56:12.078Z,20.10
2017-05-04T11:57:11.230Z,20.00
2017-05-04T11:58:12.024Z,20.10
2017-05-04T11:59:11.204Z,20.00
2017-05-04T12:00:12.809Z,20.00
2017-05-04T12:01:12.647Z,20.00
2017-05-04T12:02:12.780Z,20.00
2017-05-04T12:03:11.256Z,20.00
2017-05-04T12:04:11.391Z,20.00
2017-05-04T12:05:12.271Z,20.00
2017-05-04T12:06:11.801Z,20.00
2017-05-04T12:07:12.694Z,20.00
2017-05-04T12:08:13.651Z,20.00
2017-05-04T12:09:11.917Z,20.00
2017-05-04T12:10:12.161Z,20.00
2017-05-04T12:11:11.259Z,20.00
2017-05-04T12:12:11.508Z,20.00
2017-05-04T12:13:13.277Z,20.00
2017-05-04T12:14:11.884Z,20.00
2017-05-04T12:15:12.545Z,20.00
2017-05-04T12:16:11.683Z,20.00
2017-05-04T12:17:11.992Z,20.00
2017-05-04T12:18:11.148Z,20.00
2017-05-04T12:19:11.176Z,20.00
2017-05-04T12:20:11.777Z,20.10
2017-05-04T12:21:12.187Z,20.00
2017-05-04T12:22:11.504Z,20.00
2017-05-04T12:23:09.218Z,20.10
2017-05-04T12:24:13.206Z,20.10
2017-05-04T12:25:11.613Z,20.10
2017-05-04T12:26:12.446Z,20.10
2017-05-04T12:27:11.487Z,20.10
2017-05-04T12:28:09.473Z,20.20
2017-05-04T12:29:11.668Z,20.20
2017-05-04T12:30:11.698Z,20.20
2017-05-04T12:31:12.208Z,20.30
2017-05-04T12:32:11.412Z,20.30
2017-05-04T12:33:11.988Z,20.30
2017-05-04T12:34:11.674Z,20.30
2017-05-04T12:35:11.783Z,20.40
2017-05-04T12:36:12.085Z,20.40
2017-05-04T12:37:10.983Z,20.40
2017-05-04T12:38:11.233Z,20.50
2017-05-04T12:39:09.736Z,20.50
2017-05-04T12:40:11.894Z,20.60
2017-05-04T12:41:17.610Z,20.60
2017-05-04T12:42:12.304Z,20.60
2017-05-04T12:43:11.893Z,20.70
2017-05-04T12:44:12.856Z,20.70
2017-05-04T12:45:10.277Z,20.70
2017-05-04T12:46:12.899Z,20.80
2017-05-04T12:47:12.431Z,20.80
2017-05-04T12:48:14.066Z,20.80
2017-05-04T12:49:11.578Z,20.80
2017-05-04T12:50:10.089Z,20.80
2017-05-04T12:51:12.041Z,20.90
2017-05-04T12:52:11.202Z,20.90
2017-05-04T12:53:11.425Z,20.90
2017-05-04T12:54:10.117Z,20.90
2017-05-04T12:55:12.301Z,20.90
2017-05-04T12:56:11.417Z,20.90
2017-05-04T12:57:12.350Z,20.90
2017-05-04T12:58:12.120Z,20.90
2017-05-04T12:59:11.541Z,20.90